Venedocia, OH (45894)

6:52 PM EST on February 08, 2016 (GMT -0500)
N1ICS - Ridge Township, OH | | Change Station
CLOSE
Current Station
Personal Weather Station
Location: Van Wert, OH
Elevation: 784 ft
Nearby Weather Stations

Elev 784 ft 40.85 °N, 84.48 °W | Updated 1 minute ago

Overcast
Overcast
33.1 °F
Feels Like 24 °F
N
11.9
Wind Variable Wind from West
Gusts 12.0 mph

Today
High -- | Low -- °F
--% Chance of Precip.
Yesterday
High -- | Low -- °F
Precip. -- in
Pressure 29.64 in
Visibility 10.0 miles
Clouds Scattered Clouds 2800 ft
Overcast 5000 ft
Windchill 24 °F
Dew Point 19 °F
Humidity 56%
Rainfall 0.04 in
Snow Depth Not available.
7:41 AM 6:03 PM
New Moon, 0% visible
METAR KAOH 082253Z AUTO 30011KT 10SM SCT028 OVC050 02/M02 A2961 RMK AO2 SLP035 T00221022
Pressure 29.64 in
Visibility 10.0 miles
Clouds Scattered Clouds 2800 ft
Overcast 5000 ft
Windchill 24 °F
Dew Point 19 °F
Humidity 56%
Rainfall 0.04 in
Snow Depth Not available.
7:41 AM 6:03 PM
New Moon, 0% visible
METAR KAOH 082253Z AUTO 30011KT 10SM SCT028 OVC050 02/M02 A2961 RMK AO2 SLP035 T00221022

10-Day Weather Forecast

Almanac

Astronomy

Feb. 08, 2016 Rise Set
Actual Time
Civil Twilight
Nautical Twilight
Astronomical Twilight
Moon
Length of Visible Light
Length of Day
Tomorrow will be .
, % of the Moon is Illuminated

Today's Extremes

State Highs State Lows

Community

WunderPhotos

Upload Photos

1,891,527 photos uploaded!

WunderBlog® & News

Nearby

Air Quality

  Air Quality AQ Index Pollutant
Not available.

Snow Depth

Station Depth Elevation

Earthquake Activity

City Distance Mag. Time & Date
Minimum magnitude displayed is 2.5.

Coastal Water Temperatures

Place Temperature

Stations

Nearby Weather Stations

Station Location Temp. Windchill Dew Point Humidity Wind Precip. Elev Updated Type
                   

Watches & Warnings

There are currently no watches in effect.